sensor_id;sensor_type;location;lat;lon;timestamp;pressure;altitude;pressure_sealevel;temperature;humidity
64460;BME280;50828;53.756;21.140;2023-02-18T00:04:10;98173.17;;;5.27;74.50
64460;BME280;50828;53.756;21.140;2023-02-18T00:09:18;98174.77;;;5.23;74.61
64460;BME280;50828;53.756;21.140;2023-02-18T00:14:26;98171.30;;;5.19;74.91
64460;BME280;50828;53.756;21.140;2023-02-18T00:19:35;98175.82;;;5.20;74.88
64460;BME280;50828;53.756;21.140;2023-02-18T00:24:44;98179.52;;;5.19;74.85
64460;BME280;50828;53.756;21.140;2023-02-18T00:29:53;98182.05;;;5.17;75.09
64460;BME280;50828;53.756;21.140;2023-02-18T00:35:00;98187.57;;;5.15;75.08
64460;BME280;50828;53.756;21.140;2023-02-18T00:40:10;98196.80;;;5.11;75.20
64460;BME280;50828;53.756;21.140;2023-02-18T00:45:18;98200.61;;;5.05;75.45
64460;BME280;50828;53.756;21.140;2023-02-18T00:50:25;98200.35;;;4.99;75.49
64460;BME280;50828;53.756;21.140;2023-02-18T00:55:40;98194.85;;;4.94;75.61
64460;BME280;50828;53.756;21.140;2023-02-18T01:00:48;98188.75;;;4.90;75.85
64460;BME280;50828;53.756;21.140;2023-02-18T01:05:55;98186.70;;;4.86;76.18
64460;BME280;50828;53.756;21.140;2023-02-18T01:11:04;98184.23;;;4.82;76.09
64460;BME280;50828;53.756;21.140;2023-02-18T01:16:12;98180.84;;;4.81;76.08
64460;BME280;50828;53.756;21.140;2023-02-18T01:21:23;98177.15;;;4.77;75.97
64460;BME280;50828;53.756;21.140;2023-02-18T01:26:31;98171.30;;;4.72;76.01
64460;BME280;50828;53.756;21.140;2023-02-18T01:31:40;98171.96;;;4.69;76.09
64460;BME280;50828;53.756;21.140;2023-02-18T01:36:48;98168.52;;;4.69;76.00
64460;BME280;50828;53.756;21.140;2023-02-18T01:41:56;98167.89;;;4.67;76.11
64460;BME280;50828;53.756;21.140;2023-02-18T01:47:05;98168.85;;;4.64;76.15
64460;BME280;50828;53.756;21.140;2023-02-18T01:52:17;98161.08;;;4.63;75.93
64460;BME280;50828;53.756;21.140;2023-02-18T01:57:28;98165.97;;;4.59;75.42
64460;BME280;50828;53.756;21.140;2023-02-18T02:02:41;98163.64;;;4.53;75.51
64460;BME280;50828;53.756;21.140;2023-02-18T02:07:52;98167.74;;;4.51;75.47
64460;BME280;50828;53.756;21.140;2023-02-18T02:13:05;98171.73;;;4.52;75.46
64460;BME280;50828;53.756;21.140;2023-02-18T02:18:28;98167.63;;;4.50;75.37
64460;BME280;50828;53.756;21.140;2023-02-18T02:23:59;98164.10;;;4.47;75.31
64460;BME280;50828;53.756;21.140;2023-02-18T02:29:42;98152.84;;;4.42;75.15
64460;BME280;50828;53.756;21.140;2023-02-18T02:34:57;98150.21;;;4.38;75.00
64460;BME280;50828;53.756;21.140;2023-02-18T02:40:18;98159.10;;;4.38;74.94
64460;BME280;50828;53.756;21.140;2023-02-18T02:45:42;98150.10;;;4.37;74.84
64460;BME280;50828;53.756;21.140;2023-02-18T02:51:03;98152.39;;;4.36;74.90
64460;BME280;50828;53.756;21.140;2023-02-18T02:56:15;98154.10;;;4.37;74.52
64460;BME280;50828;53.756;21.140;2023-02-18T03:01:31;98154.11;;;4.37;74.38
64460;BME280;50828;53.756;21.140;2023-02-18T03:12:24;98168.58;;;4.37;74.01
64460;BME280;50828;53.756;21.140;2023-02-18T03:17:43;98173.19;;;4.39;73.72
64460;BME280;50828;53.756;21.140;2023-02-18T03:22:53;98191.81;;;4.39;73.56
64460;BME280;50828;53.756;21.140;2023-02-18T03:28:04;98185.71;;;4.39;73.39
64460;BME280;50828;53.756;21.140;2023-02-18T03:33:17;98185.95;;;4.42;73.19
64460;BME280;50828;53.756;21.140;2023-02-18T03:38:31;98191.34;;;4.42;72.86
64460;BME280;50828;53.756;21.140;2023-02-18T03:43:50;98197.83;;;4.45;72.78
64460;BME280;50828;53.756;21.140;2023-02-18T03:48:59;98194.73;;;4.48;72.75
64460;BME280;50828;53.756;21.140;2023-02-18T03:54:08;98208.03;;;4.51;72.76
64460;BME280;50828;53.756;21.140;2023-02-18T03:59:19;98203.79;;;4.52;72.63
64460;BME280;50828;53.756;21.140;2023-02-18T04:04:27;98223.35;;;4.47;72.21
64460;BME280;50828;53.756;21.140;2023-02-18T04:09:35;98213.08;;;4.47;72.54
64460;BME280;50828;53.756;21.140;2023-02-18T04:14:43;98218.56;;;4.45;72.52
64460;BME280;50828;53.756;21.140;2023-02-18T04:19:51;98213.70;;;4.41;72.34
64460;BME280;50828;53.756;21.140;2023-02-18T04:24:59;98219.45;;;4.37;72.39
64460;BME280;50828;53.756;21.140;2023-02-18T04:30:08;98223.05;;;4.34;72.64
64460;BME280;50828;53.756;21.140;2023-02-18T04:35:17;98231.42;;;4.31;72.93
64460;BME280;50828;53.756;21.140;2023-02-18T04:40:25;98229.39;;;4.25;72.69
64460;BME280;50828;53.756;21.140;2023-02-18T04:45:35;98229.27;;;4.20;72.71
64460;BME280;50828;53.756;21.140;2023-02-18T04:50:44;98230.58;;;4.14;72.88
64460;BME280;50828;53.756;21.140;2023-02-18T04:55:54;98223.17;;;4.08;72.83
64460;BME280;50828;53.756;21.140;2023-02-18T05:01:02;98226.55;;;4.02;72.84
64460;BME280;50828;53.756;21.140;2023-02-18T05:06:10;98231.25;;;3.98;72.71
64460;BME280;50828;53.756;21.140;2023-02-18T05:11:18;98227.54;;;3.96;72.51
64460;BME280;50828;53.756;21.140;2023-02-18T05:16:26;98231.63;;;3.94;72.27
64460;BME280;50828;53.756;21.140;2023-02-18T05:21:35;98234.98;;;3.93;71.90
64460;BME280;50828;53.756;21.140;2023-02-18T05:26:43;98246.27;;;3.94;71.91
64460;BME280;50828;53.756;21.140;2023-02-18T05:31:52;98256.69;;;3.95;71.76
64460;BME280;50828;53.756;21.140;2023-02-18T05:37:00;98253.84;;;3.92;71.42
64460;BME280;50828;53.756;21.140;2023-02-18T05:42:09;98260.03;;;3.90;71.70
64460;BME280;50828;53.756;21.140;2023-02-18T05:47:18;98260.80;;;3.88;71.47
64460;BME280;50828;53.756;21.140;2023-02-18T05:52:26;98275.81;;;3.87;71.19
64460;BME280;50828;53.756;21.140;2023-02-18T05:57:34;98286.70;;;3.84;71.07
64460;BME280;50828;53.756;21.140;2023-02-18T06:02:43;98286.20;;;3.84;71.31
64460;BME280;50828;53.756;21.140;2023-02-18T06:07:51;98290.83;;;3.86;71.35
64460;BME280;50828;53.756;21.140;2023-02-18T06:13:01;98290.77;;;3.88;71.41
64460;BME280;50828;53.756;21.140;2023-02-18T06:18:10;98292.98;;;3.89;71.66
64460;BME280;50828;53.756;21.140;2023-02-18T06:23:19;98298.58;;;3.88;71.24
64460;BME280;50828;53.756;21.140;2023-02-18T06:28:28;98308.02;;;3.87;71.18
64460;BME280;50828;53.756;21.140;2023-02-18T06:33:38;98315.55;;;3.86;70.87
64460;BME280;50828;53.756;21.140;2023-02-18T06:38:46;98324.55;;;3.88;70.84
64460;BME280;50828;53.756;21.140;2023-02-18T06:43:55;98323.90;;;3.91;70.56
64460;BME280;50828;53.756;21.140;2023-02-18T06:49:03;98315.27;;;3.93;70.38
64460;BME280;50828;53.756;21.140;2023-02-18T06:54:12;98328.00;;;3.97;70.41
64460;BME280;50828;53.756;21.140;2023-02-18T06:59:19;98336.93;;;4.00;70.13
64460;BME280;50828;53.756;21.140;2023-02-18T07:04:27;98351.19;;;4.04;69.93
64460;BME280;50828;53.756;21.140;2023-02-18T07:09:35;98354.59;;;4.11;69.67
64460;BME280;50828;53.756;21.140;2023-02-18T07:14:43;98366.96;;;4.15;69.57
64460;BME280;50828;53.756;21.140;2023-02-18T07:19:52;98374.27;;;4.19;69.35
64460;BME280;50828;53.756;21.140;2023-02-18T07:25:01;98377.34;;;4.21;69.24
64460;BME280;50828;53.756;21.140;2023-02-18T07:30:09;98387.86;;;4.23;68.96
64460;BME280;50828;53.756;21.140;2023-02-18T07:35:19;98402.52;;;4.27;69.10
64460;BME280;50828;53.756;21.140;2023-02-18T07:40:28;98410.20;;;4.31;68.93
64460;BME280;50828;53.756;21.140;2023-02-18T07:45:38;98415.41;;;4.36;68.77
64460;BME280;50828;53.756;21.140;2023-02-18T07:50:46;98416.09;;;4.40;68.75
64460;BME280;50828;53.756;21.140;2023-02-18T07:55:55;98423.21;;;4.45;68.65
64460;BME280;50828;53.756;21.140;2023-02-18T08:01:08;98431.09;;;4.48;68.29
64460;BME280;50828;53.756;21.140;2023-02-18T08:06:22;98439.03;;;4.50;68.23
64460;BME280;50828;53.756;21.140;2023-02-18T08:11:33;98444.76;;;4.51;68.01
64460;BME280;50828;53.756;21.140;2023-02-18T08:16:45;98445.40;;;4.52;68.17
64460;BME280;50828;53.756;21.140;2023-02-18T08:21:54;98456.95;;;4.55;67.77
64460;BME280;50828;53.756;21.140;2023-02-18T08:27:02;98460.56;;;4.57;67.85
64460;BME280;50828;53.756;21.140;2023-02-18T08:32:10;98472.91;;;4.61;67.71
64460;BME280;50828;53.756;21.140;2023-02-18T08:37:19;98472.92;;;4.66;67.59
64460;BME280;50828;53.756;21.140;2023-02-18T08:42:28;98474.59;;;4.67;67.46
64460;BME280;50828;53.756;21.140;2023-02-18T08:47:38;98476.61;;;4.69;67.53
64460;BME280;50828;53.756;21.140;2023-02-18T08:53:06;98481.23;;;4.71;67.50
64460;BME280;50828;53.756;21.140;2023-02-18T08:58:14;98482.27;;;4.75;67.55
64460;BME280;50828;53.756;21.140;2023-02-18T09:03:22;98481.24;;;4.79;67.36
64460;BME280;50828;53.756;21.140;2023-02-18T09:08:30;98488.55;;;4.84;67.39
64460;BME280;50828;53.756;21.140;2023-02-18T09:13:39;98494.66;;;4.88;67.17
64460;BME280;50828;53.756;21.140;2023-02-18T09:18:48;98493.45;;;4.91;67.10
64460;BME280;50828;53.756;21.140;2023-02-18T09:23:57;98497.40;;;4.97;66.99
64460;BME280;50828;53.756;21.140;2023-02-18T09:29:05;98489.70;;;5.02;66.67
64460;BME280;50828;53.756;21.140;2023-02-18T09:34:15;98495.80;;;5.05;66.39
64460;BME280;50828;53.756;21.140;2023-02-18T09:39:24;98502.06;;;5.10;66.08
64460;BME280;50828;53.756;21.140;2023-02-18T09:44:36;98497.45;;;5.12;65.58
64460;BME280;50828;53.756;21.140;2023-02-18T09:49:50;98497.38;;;5.18;66.17
64460;BME280;50828;53.756;21.140;2023-02-18T09:54:59;98504.64;;;5.23;65.65
64460;BME280;50828;53.756;21.140;2023-02-18T10:00:15;98504.12;;;5.27;65.56
64460;BME280;50828;53.756;21.140;2023-02-18T10:05:24;98515.20;;;5.33;65.67
64460;BME280;50828;53.756;21.140;2023-02-18T10:10:39;98523.11;;;5.40;65.31
64460;BME280;50828;53.756;21.140;2023-02-18T10:15:49;98529.20;;;5.44;65.12
64460;BME280;50828;53.756;21.140;2023-02-18T10:21:09;98531.20;;;5.50;65.34
64460;BME280;50828;53.756;21.140;2023-02-18T10:26:20;98525.52;;;5.60;65.29
64460;BME280;50828;53.756;21.140;2023-02-18T10:31:33;98527.47;;;5.71;65.14
64460;BME280;50828;53.756;21.140;2023-02-18T10:36:45;98526.63;;;5.82;64.55
64460;BME280;50828;53.756;21.140;2023-02-18T10:42:04;98522.69;;;5.88;63.70
64460;BME280;50828;53.756;21.140;2023-02-18T10:47:24;98521.19;;;5.90;63.20
64460;BME280;50828;53.756;21.140;2023-02-18T10:52:41;98529.30;;;5.92;63.14
64460;BME280;50828;53.756;21.140;2023-02-18T10:57:52;98534.27;;;5.94;63.17
64460;BME280;50828;53.756;21.140;2023-02-18T11:03:14;98535.76;;;5.97;63.09
64460;BME280;50828;53.756;21.140;2023-02-18T11:08:26;98537.83;;;5.98;62.74
64460;BME280;50828;53.756;21.140;2023-02-18T11:13:32;98546.52;;;5.99;63.02
64460;BME280;50828;53.756;21.140;2023-02-18T11:18:43;98546.13;;;5.99;61.98
64460;BME280;50828;53.756;21.140;2023-02-18T11:23:54;98544.83;;;6.01;62.93
64460;BME280;50828;53.756;21.140;2023-02-18T11:29:04;98543.55;;;6.06;63.18
64460;BME280;50828;53.756;21.140;2023-02-18T11:34:20;98547.46;;;6.12;63.10
64460;BME280;50828;53.756;21.140;2023-02-18T11:39:27;98548.77;;;6.18;62.33
64460;BME280;50828;53.756;21.140;2023-02-18T11:44:39;98549.14;;;6.25;62.86
64460;BME280;50828;53.756;21.140;2023-02-18T11:50:13;98548.42;;;6.33;61.74
64460;BME280;50828;53.756;21.140;2023-02-18T11:55:24;98552.75;;;6.37;60.98
64460;BME280;50828;53.756;21.140;2023-02-18T12:00:40;98549.71;;;6.38;61.35
64460;BME280;50828;53.756;21.140;2023-02-18T12:05:48;98550.29;;;6.38;60.77
64460;BME280;50828;53.756;21.140;2023-02-18T12:11:01;98551.11;;;6.38;61.06
64460;BME280;50828;53.756;21.140;2023-02-18T12:16:20;98554.89;;;6.36;60.54
64460;BME280;50828;53.756;21.140;2023-02-18T12:21:52;98558.16;;;6.33;60.00
64460;BME280;50828;53.756;21.140;2023-02-18T12:27:11;98563.30;;;6.29;59.77
64460;BME280;50828;53.756;21.140;2023-02-18T12:32:31;98559.91;;;6.26;60.11
64460;BME280;50828;53.756;21.140;2023-02-18T12:38:01;98567.13;;;6.25;59.93
64460;BME280;50828;53.756;21.140;2023-02-18T12:43:20;98562.14;;;6.23;59.42
64460;BME280;50828;53.756;21.140;2023-02-18T12:48:43;98562.14;;;6.23;59.23
64460;BME280;50828;53.756;21.140;2023-02-18T12:54:15;98559.90;;;6.22;58.91
64460;BME280;50828;53.756;21.140;2023-02-18T12:59:49;98554.93;;;6.20;58.80
64460;BME280;50828;53.756;21.140;2023-02-18T13:05:05;98551.70;;;6.19;58.31
64460;BME280;50828;53.756;21.140;2023-02-18T13:15:57;98554.38;;;6.14;58.52
64460;BME280;50828;53.756;21.140;2023-02-18T13:21:10;98552.83;;;6.13;58.48
64460;BME280;50828;53.756;21.140;2023-02-18T13:26:20;98547.70;;;6.11;58.39
64460;BME280;50828;53.756;21.140;2023-02-18T13:31:41;98557.70;;;6.06;58.79
64460;BME280;50828;53.756;21.140;2023-02-18T13:37:02;98559.14;;;6.05;59.03
64460;BME280;50828;53.756;21.140;2023-02-18T13:42:36;98573.11;;;6.05;58.84
64460;BME280;50828;53.756;21.140;2023-02-18T13:47:46;98575.69;;;6.02;58.33
64460;BME280;50828;53.756;21.140;2023-02-18T13:53:13;98566.05;;;5.99;58.66
64460;BME280;50828;53.756;21.140;2023-02-18T13:58:26;98570.52;;;5.97;58.48
64460;BME280;50828;53.756;21.140;2023-02-18T14:03:54;98571.80;;;5.95;58.26
64460;BME280;50828;53.756;21.140;2023-02-18T14:09:36;98572.23;;;5.93;58.08
64460;BME280;50828;53.756;21.140;2023-02-18T14:14:45;98578.19;;;5.89;58.09
64460;BME280;50828;53.756;21.140;2023-02-18T14:19:58;98577.84;;;5.86;58.52
64460;BME280;50828;53.756;21.140;2023-02-18T14:25:37;98585.14;;;5.82;58.26
64460;BME280;50828;53.756;21.140;2023-02-18T14:30:47;98590.54;;;5.79;58.37
64460;BME280;50828;53.756;21.140;2023-02-18T14:35:59;98591.38;;;5.76;58.42
64460;BME280;50828;53.756;21.140;2023-02-18T14:41:29;98588.56;;;5.72;58.50
64460;BME280;50828;53.756;21.140;2023-02-18T14:46:54;98584.50;;;5.69;58.67
64460;BME280;50828;53.756;21.140;2023-02-18T14:52:15;98574.55;;;5.65;58.53
64460;BME280;50828;53.756;21.140;2023-02-18T14:57:35;98571.88;;;5.62;59.09
64460;BME280;50828;53.756;21.140;2023-02-18T15:02:49;98570.52;;;5.61;59.01
64460;BME280;50828;53.756;21.140;2023-02-18T15:07:59;98571.38;;;5.58;59.01
64460;BME280;50828;53.756;21.140;2023-02-18T15:13:16;98568.20;;;5.54;58.79
64460;BME280;50828;53.756;21.140;2023-02-18T15:18:32;98566.94;;;5.52;58.94
64460;BME280;50828;53.756;21.140;2023-02-18T15:23:42;98568.61;;;5.49;59.32
64460;BME280;50828;53.756;21.140;2023-02-18T15:28:57;98570.64;;;5.47;59.04
64460;BME280;50828;53.756;21.140;2023-02-18T15:34:18;98573.77;;;5.43;59.27
64460;BME280;50828;53.756;21.140;2023-02-18T15:39:33;98574.79;;;5.44;59.59
64460;BME280;50828;53.756;21.140;2023-02-18T15:44:46;98578.06;;;5.45;59.59
64460;BME280;50828;53.756;21.140;2023-02-18T15:49:58;98579.70;;;5.43;59.86
64460;BME280;50828;53.756;21.140;2023-02-18T15:55:12;98575.35;;;5.43;59.72
64460;BME280;50828;53.756;21.140;2023-02-18T16:00:29;98571.78;;;5.41;59.71
64460;BME280;50828;53.756;21.140;2023-02-18T16:05:40;98572.56;;;5.39;59.94
64460;BME280;50828;53.756;21.140;2023-02-18T16:10:55;98569.56;;;5.36;59.59
64460;BME280;50828;53.756;21.140;2023-02-18T16:16:17;98566.05;;;5.32;59.44
64460;BME280;50828;53.756;21.140;2023-02-18T16:21:32;98569.49;;;5.29;59.46
64460;BME280;50828;53.756;21.140;2023-02-18T16:26:48;98566.17;;;5.25;59.48
64460;BME280;50828;53.756;21.140;2023-02-18T16:31:56;98569.98;;;5.22;59.70
64460;BME280;50828;53.756;21.140;2023-02-18T16:37:08;98570.81;;;5.18;59.92
64460;BME280;50828;53.756;21.140;2023-02-18T16:42:35;98571.27;;;5.16;59.82
64460;BME280;50828;53.756;21.140;2023-02-18T16:47:45;98567.74;;;5.04;59.81
64460;BME280;50828;53.756;21.140;2023-02-18T16:52:54;98582.89;;;5.09;60.19
64460;BME280;50828;53.756;21.140;2023-02-18T16:58:03;98583.37;;;5.06;60.15
64460;BME280;50828;53.756;21.140;2023-02-18T17:03:17;98587.38;;;5.03;60.39
64460;BME280;50828;53.756;21.140;2023-02-18T17:08:28;98594.63;;;5.00;60.57
64460;BME280;50828;53.756;21.140;2023-02-18T17:13:35;98602.83;;;5.00;60.66
64460;BME280;50828;53.756;21.140;2023-02-18T17:18:45;98603.94;;;4.99;60.63
64460;BME280;50828;53.756;21.140;2023-02-18T17:23:54;98610.52;;;4.95;60.55
64460;BME280;50828;53.756;21.140;2023-02-18T17:29:02;98613.61;;;4.92;60.73
64460;BME280;50828;53.756;21.140;2023-02-18T17:34:13;98619.33;;;4.89;60.82
64460;BME280;50828;53.756;21.140;2023-02-18T17:39:21;98625.69;;;4.87;61.14
64460;BME280;50828;53.756;21.140;2023-02-18T17:44:30;98633.13;;;4.89;61.13
64460;BME280;50828;53.756;21.140;2023-02-18T17:49:39;98631.39;;;4.88;61.36
64460;BME280;50828;53.756;21.140;2023-02-18T17:54:48;98635.04;;;4.89;61.56
64460;BME280;50828;53.756;21.140;2023-02-18T17:59:57;98637.53;;;4.87;61.32
64460;BME280;50828;53.756;21.140;2023-02-18T18:05:08;98646.91;;;4.84;61.72
64460;BME280;50828;53.756;21.140;2023-02-18T18:10:22;98650.19;;;4.81;61.46
64460;BME280;50828;53.756;21.140;2023-02-18T18:15:36;98657.48;;;4.77;61.68
64460;BME280;50828;53.756;21.140;2023-02-18T18:20:43;98663.16;;;4.75;61.92
64460;BME280;50828;53.756;21.140;2023-02-18T18:25:53;98667.95;;;4.72;61.63
64460;BME280;50828;53.756;21.140;2023-02-18T18:31:02;98673.27;;;4.71;61.97
64460;BME280;50828;53.756;21.140;2023-02-18T18:36:12;98681.16;;;4.69;62.16
64460;BME280;50828;53.756;21.140;2023-02-18T18:41:22;98688.38;;;4.67;62.08
64460;BME280;50828;53.756;21.140;2023-02-18T18:46:31;98693.27;;;4.67;62.19
64460;BME280;50828;53.756;21.140;2023-02-18T18:51:40;98700.27;;;4.67;62.21
64460;BME280;50828;53.756;21.140;2023-02-18T18:56:47;98703.27;;;4.66;62.24
64460;BME280;50828;53.756;21.140;2023-02-18T19:01:56;98713.19;;;4.66;62.21
64460;BME280;50828;53.756;21.140;2023-02-18T19:07:05;98713.59;;;4.65;62.19
64460;BME280;50828;53.756;21.140;2023-02-18T19:12:14;98721.17;;;4.63;62.59
64460;BME280;50828;53.756;21.140;2023-02-18T19:17:23;98725.42;;;4.61;62.58
64460;BME280;50828;53.756;21.140;2023-02-18T19:22:31;98742.02;;;4.60;62.71
64460;BME280;50828;53.756;21.140;2023-02-18T19:27:41;98745.20;;;4.58;62.78
64460;BME280;50828;53.756;21.140;2023-02-18T19:32:51;98746.86;;;4.56;62.83
64460;BME280;50828;53.756;21.140;2023-02-18T19:38:00;98754.09;;;4.55;62.99
64460;BME280;50828;53.756;21.140;2023-02-18T19:43:11;98769.98;;;4.53;63.03
64460;BME280;50828;53.756;21.140;2023-02-18T19:48:19;98770.77;;;4.51;62.90
64460;BME280;50828;53.756;21.140;2023-02-18T19:53:29;98772.89;;;4.50;63.09
64460;BME280;50828;53.756;21.140;2023-02-18T19:58:37;98777.11;;;4.50;63.20
64460;BME280;50828;53.756;21.140;2023-02-18T20:03:47;98781.14;;;4.49;62.93
64460;BME280;50828;53.756;21.140;2023-02-18T20:08:56;98784.67;;;4.48;63.06
64460;BME280;50828;53.756;21.140;2023-02-18T20:14:05;98792.20;;;4.47;62.84
64460;BME280;50828;53.756;21.140;2023-02-18T20:19:14;98791.55;;;4.46;62.84
64460;BME280;50828;53.756;21.140;2023-02-18T20:24:23;98788.79;;;4.45;62.71
64460;BME280;50828;53.756;21.140;2023-02-18T20:29:32;98793.54;;;4.44;62.97
64460;BME280;50828;53.756;21.140;2023-02-18T20:34:41;98794.11;;;4.42;62.86
64460;BME280;50828;53.756;21.140;2023-02-18T20:39:49;98787.06;;;4.39;62.89
64460;BME280;50828;53.756;21.140;2023-02-18T20:44:57;98794.59;;;4.39;63.06
64460;BME280;50828;53.756;21.140;2023-02-18T20:50:06;98802.52;;;4.36;63.05
64460;BME280;50828;53.756;21.140;2023-02-18T20:55:15;98810.30;;;4.33;62.91
64460;BME280;50828;53.756;21.140;2023-02-18T21:00:23;98815.77;;;4.31;63.18
64460;BME280;50828;53.756;21.140;2023-02-18T21:05:32;98818.32;;;4.28;63.15
64460;BME280;50828;53.756;21.140;2023-02-18T21:10:43;98820.28;;;4.27;63.37
64460;BME280;50828;53.756;21.140;2023-02-18T21:15:52;98828.34;;;4.26;63.04
64460;BME280;50828;53.756;21.140;2023-02-18T21:21:01;98826.77;;;4.26;63.21
64460;BME280;50828;53.756;21.140;2023-02-18T21:26:14;98829.25;;;4.25;63.24
64460;BME280;50828;53.756;21.140;2023-02-18T21:31:23;98832.63;;;4.22;63.24
64460;BME280;50828;53.756;21.140;2023-02-18T21:36:33;98844.16;;;4.21;63.34
64460;BME280;50828;53.756;21.140;2023-02-18T21:41:42;98852.95;;;4.19;63.30
64460;BME280;50828;53.756;21.140;2023-02-18T21:46:50;98858.63;;;4.16;63.60
64460;BME280;50828;53.756;21.140;2023-02-18T21:51:59;98864.43;;;4.15;63.62
64460;BME280;50828;53.756;21.140;2023-02-18T21:57:16;98857.86;;;4.13;63.62
64460;BME280;50828;53.756;21.140;2023-02-18T22:02:29;98852.33;;;4.12;63.63
64460;BME280;50828;53.756;21.140;2023-02-18T22:07:38;98851.66;;;4.11;63.85
64460;BME280;50828;53.756;21.140;2023-02-18T22:12:46;98858.48;;;4.10;63.85
64460;BME280;50828;53.756;21.140;2023-02-18T22:17:56;98863.88;;;4.05;64.04
64460;BME280;50828;53.756;21.140;2023-02-18T22:23:05;98869.54;;;4.03;64.12
64460;BME280;50828;53.756;21.140;2023-02-18T22:28:12;98879.52;;;4.00;64.27
64460;BME280;50828;53.756;21.140;2023-02-18T22:33:20;98878.73;;;3.98;64.26
64460;BME280;50828;53.756;21.140;2023-02-18T22:38:29;98880.42;;;3.95;64.47
64460;BME280;50828;53.756;21.140;2023-02-18T22:43:38;98878.05;;;3.93;64.55
64460;BME280;50828;53.756;21.140;2023-02-18T22:48:46;98871.91;;;3.89;64.55
64460;BME280;50828;53.756;21.140;2023-02-18T22:53:58;98868.02;;;3.85;64.87
64460;BME280;50828;53.756;21.140;2023-02-18T22:59:07;98882.05;;;3.82;64.75
64460;BME280;50828;53.756;21.140;2023-02-18T23:04:17;98899.35;;;3.80;65.06
64460;BME280;50828;53.756;21.140;2023-02-18T23:09:25;98882.00;;;3.73;65.07
64460;BME280;50828;53.756;21.140;2023-02-18T23:14:34;98900.33;;;3.77;65.20
64460;BME280;50828;53.756;21.140;2023-02-18T23:19:43;98903.10;;;3.78;65.25
64460;BME280;50828;53.756;21.140;2023-02-18T23:24:51;98905.77;;;3.76;65.32
64460;BME280;50828;53.756;21.140;2023-02-18T23:30:00;98916.09;;;3.74;65.45
64460;BME280;50828;53.756;21.140;2023-02-18T23:35:08;98908.13;;;3.73;65.31
64460;BME280;50828;53.756;21.140;2023-02-18T23:40:16;98905.05;;;3.71;65.53
64460;BME280;50828;53.756;21.140;2023-02-18T23:45:25;98905.69;;;3.68;65.53
64460;BME280;50828;53.756;21.140;2023-02-18T23:50:32;98913.60;;;3.65;65.68
64460;BME280;50828;53.756;21.140;2023-02-18T23:55:41;98925.20;;;3.61;65.76
